Αρχική σελίδα
METAR-TAF:

METAR-TAF

Αεροδρόμια :

Διεθνές Αεροδρόμιο Βρυξελλών

Βρυξέλλες, Βέλγιο

γεωγραφικό πλάτος: 50-54N, γεωγραφικό μήκος: 004-32E, υψόμετρο: 55 μ

Παρών καιρός

Η αναφορά έγινε 25 λεπτά πριν, στις 02:50 UTC
Άνεμος 5 kt από
Θερμοκρασία 11°C
Υγρασία 87%
Πίεση 1023 hPa
Ορατότητα 10 χλμ και άνω
Λίγα νέφη σε ύψος 1300 πόδια

METAR: EBBR 240250Z 32005KT 9999 FEW013 11/09 Q1023 NOSIG

Χρόνος: 05:15 (03:15 UTC)

Πρόγνωση Καιρού

Η αναφορά έγινε 3 ώρες και 55 λεπτά πριν, στις 23:20 UTC
Η πρόγνωση ισχύει από τις 24 στις 00 UTC έως τις 25 στις 06 UTC
Άνεμος 5 kt από Β/BΔ
Ορατότητα 10 χλμ και άνω
Δεν υπάρχουν νέφη με βάση κάτω από τα 1500 μ. και δεν υπάρχουν νέφη σωρειτομελανίτες.
Πιθανότητα 40% :
Προσωρινά
από 25 στις 02 UTC έως τις 25 στις 06 UTC
Ορατότητα: 4500 μ
Αρκετά νέφη σε ύψος 500 πόδια
Αχλής

TAF: EBBR 232320Z 2400/2506 34005KT CAVOK PROB40 TEMPO 2502/2506 4500 BR BKN005

Μετεωρολογικές αναφορές και προγνώσεις για περισσότερα από 4000 αεροδρόμια (δελτία METAR και TAF).

Οι διαθέσιμοι σταθμοί απεικονίζονται στο χάρτη με κίτρινες και κόκκινες κουκκίδες.

Μετακινήστε το ποντίκι πάνω από τις κουκκίδες για να δείτε το όνομα του σταθμού.

Στη συνέχεια, κάντε κλικ για να δείτε τις μετεωρολογικές αναφορές και τις προγνώσεις καιρού.

Για να αλλάξετε το χάρτη: κάντε κλικ στα πράσινα κουμπιά με τον μαύρο σταυρό για να ζουμάρετε, στο πράσινο κουμπί με την παύλα για να αφαιρέσετε το ζουμ ή στα πράσινα βέλη για να αντιπαραβάλλετε χάρτες.


METAR-TAF: